»·PEaware :: UAL1022 KELP-KPSP

UAL1022 :: KELP-KPSP

FLIGHT INFORMATION

Flight Status: Arrived
Operator:
United Airlines
More flights by this operator :: More flights under this callsign
Pilot: Cole F. (14495)
Aircraft: BOEING 727-200
(B722)
More flights by this aircraft type
Origin: KELP El Paso Intl
United States
Destination: KPSP Palm Springs Intl
United States
More flights between these airports :: More routes between these airports
Route: DMN PXR BLH SBONO1
File this flight plan on PilotEdge
Remarks:
Altitude:
(Current/Filed)
32,000ft
Speed:
(Current/Filed)
483kts
Departed: 07-Dec-18 09:10 AM
Arrived: 07-Dec-18 10:34 AM
Distance/Time
Traveled:
525nm/1:24
Distance/Time
To Go:
Arrived

Flight Plot

Page will automatically refresh every two minutes.

Flight plan parsing failed; only flown route is shown


Map Options




Map Legend


Flown Route
Filed Route
Departure Airport
Arrival Airport
Navaid (VOR, NDB)
Fix

Horizontal Profiles

Position Reports

Time Latitude Longitude Heading Altitude Ground
Speed
07-Dec-18 08:58 31.799318 -106.393029 77 3947ft 0kts
07-Dec-18 08:59 31.799318 -106.393029 77 3947ft 0kts
07-Dec-18 09:00 31.799318 -106.393029 77 3947ft 0kts
07-Dec-18 09:01 31.799606 -106.391984 62 3947ft 0kts
07-Dec-18 09:02 31.799885 -106.389729 89 3947ft 16kts
07-Dec-18 09:03 31.799915 -106.383337 90 3947ft 19kts
07-Dec-18 09:04 31.799837 -106.377484 93 3947ft 17kts
07-Dec-18 09:05 31.799561 -106.371830 93 3947ft 17kts
07-Dec-18 09:06 31.799280 -106.366305 93 3947ft 16kts
07-Dec-18 09:07 31.799012 -106.360769 93 3947ft 16kts
07-Dec-18 09:08 31.800745 -106.362276 274 3947ft 37kts
07-Dec-18 09:09 31.801990 -106.403263 261 4638ft 156kts
07-Dec-18 09:10 31.767575 -106.403241 127 5520ft 196kts
07-Dec-18 09:11 31.730710 -106.333093 116 6988ft 284kts
07-Dec-18 09:12 31.750207 -106.255930 17 9910ft 289kts
07-Dec-18 09:13 31.809205 -106.298730 281 12421ft 287kts
07-Dec-18 09:14 31.835616 -106.392260 287 14432ft 319kts
07-Dec-18 09:15 31.869164 -106.489103 287 17077ft 325kts
07-Dec-18 09:16 31.905073 -106.587752 286 19307ft 334kts
07-Dec-18 09:17 31.941777 -106.688329 284 21422ft 341kts
07-Dec-18 09:18 31.979599 -106.792263 284 23295ft 351kts
07-Dec-18 09:19 32.018619 -106.898845 283 24867ft 361kts
07-Dec-18 09:20 32.059035 -107.009276 282 26238ft 372kts
07-Dec-18 09:21 32.100315 -107.122584 282 27486ft 381kts
07-Dec-18 09:22 32.143277 -107.237860 281 28514ft 388kts
07-Dec-18 09:23 32.186155 -107.355505 281 29454ft 394kts
07-Dec-18 09:24 32.229347 -107.475400 281 30302ft 400kts
07-Dec-18 09:25 32.273165 -107.596480 281 31074ft 405kts
07-Dec-18 09:26 32.306880 -107.720842 275 31763ft 402kts
07-Dec-18 09:27 32.344077 -107.846589 276 32246ft 411kts
07-Dec-18 09:28 32.382628 -107.975329 276 32248ft 419kts
07-Dec-18 09:29 32.421432 -108.106033 277 32262ft 426kts
07-Dec-18 09:30 32.460593 -108.239065 277 32275ft 436kts
07-Dec-18 09:31 32.500479 -108.376224 277 32274ft 446kts
07-Dec-18 09:32 32.542695 -108.516258 283 32272ft 463kts
07-Dec-18 09:33 32.586375 -108.655629 277 32273ft 459kts
07-Dec-18 09:34 32.625055 -108.797702 276 32266ft 464kts
07-Dec-18 09:35 32.664443 -108.943770 276 32214ft 469kts
07-Dec-18 09:36 32.704077 -109.092186 278 32197ft 473kts
07-Dec-18 09:37 32.743896 -109.241408 280 32197ft 478kts
07-Dec-18 09:38 32.783990 -109.392430 280 32197ft 482kts
07-Dec-18 09:39 32.823971 -109.544567 280 32196ft 485kts
07-Dec-18 09:40 32.863825 -109.697787 279 32204ft 487kts
07-Dec-18 09:41 32.903851 -109.852043 280 32203ft 490kts
07-Dec-18 09:42 32.943905 -110.006459 280 32202ft 492kts
07-Dec-18 09:43 32.983976 -110.161993 280 32201ft 493kts
07-Dec-18 09:44 33.023852 -110.317996 280 32200ft 493kts
07-Dec-18 09:45 33.063497 -110.474085 280 32193ft 493kts
07-Dec-18 09:46 33.103334 -110.630361 281 32169ft 494kts
07-Dec-18 09:47 33.143266 -110.784990 280 32165ft 492kts
07-Dec-18 09:48 33.182191 -110.941044 281 32165ft 492kts
07-Dec-18 09:49 33.220996 -111.097389 282 32165ft 491kts
07-Dec-18 09:50 33.259651 -111.253374 283 32165ft 492kts
07-Dec-18 09:51 33.298192 -111.410031 283 32164ft 492kts
07-Dec-18 09:52 33.336519 -111.566847 283 32157ft 492kts
07-Dec-18 09:53 33.373965 -111.723526 282 32154ft 493kts
07-Dec-18 09:54 33.411482 -111.880355 282 32147ft 493kts
07-Dec-18 09:55 33.444278 -112.038631 272 32150ft 487kts
07-Dec-18 09:56 33.457459 -112.199617 272 32152ft 487kts
07-Dec-18 09:57 33.468183 -112.360942 271 32166ft 487kts
07-Dec-18 09:58 33.478407 -112.522595 271 32160ft 488kts
07-Dec-18 09:59 33.488204 -112.683854 270 32166ft 487kts
07-Dec-18 10:00 33.497409 -112.845362 271 32171ft 488kts
07-Dec-18 10:01 33.506826 -113.007239 274 32167ft 488kts
07-Dec-18 10:02 33.516367 -113.169790 274 32167ft 489kts
07-Dec-18 10:03 33.525562 -113.332146 274 32166ft 489kts
07-Dec-18 10:04 33.534521 -113.494537 274 32165ft 490kts
07-Dec-18 10:05 33.543270 -113.657003 274 32157ft 490kts
07-Dec-18 10:06 33.551176 -113.819544 274 32151ft 491kts
07-Dec-18 10:07 33.559486 -113.982649 274 32148ft 491kts
07-Dec-18 10:08 33.567644 -114.146265 274 32143ft 492kts
07-Dec-18 10:09 33.575560 -114.309440 274 32137ft 489kts
07-Dec-18 10:10 33.582829 -114.464925 274 32050ft 447kts
07-Dec-18 10:11 33.589293 -114.609129 273 31174ft 427kts
07-Dec-18 10:12 33.595203 -114.747251 272 30091ft 420kts
07-Dec-18 10:13 33.631449 -114.876849 292 28906ft 414kts
07-Dec-18 10:14 33.676514 -115.001935 289 27365ft 404kts
07-Dec-18 10:15 33.717464 -115.124648 290 26119ft 389kts
07-Dec-18 10:16 33.756691 -115.242547 290 24697ft 376kts
07-Dec-18 10:17 33.795162 -115.358468 289 22801ft 369kts
07-Dec-18 10:18 33.832583 -115.471717 289 20918ft 363kts
07-Dec-18 10:19 33.869580 -115.583422 289 19052ft 358kts
07-Dec-18 10:20 33.902801 -115.682296 289 17471ft 352kts
07-Dec-18 10:21 33.914265 -115.793704 264 14420ft 344kts
07-Dec-18 10:22 33.906977 -115.901266 264 11353ft 316kts
07-Dec-18 10:23 33.890020 -115.998831 251 10608ft 288kts
07-Dec-18 10:24 33.864933 -116.089637 251 9425ft 283kts
07-Dec-18 10:25 33.828997 -116.163230 222 8267ft 242kts
07-Dec-18 10:26 33.778604 -116.216543 221 6306ft 240kts
07-Dec-18 10:27 33.743176 -116.273580 270 5574ft 188kts
07-Dec-18 10:28 33.742674 -116.336819 270 4217ft 189kts
07-Dec-18 10:29 33.749811 -116.396273 289 3491ft 173kts
07-Dec-18 10:30 33.766398 -116.448176 299 2430ft 154kts
07-Dec-18 10:31 33.798110 -116.479618 322 1071ft 145kts
07-Dec-18 10:32 33.828186 -116.506335 323 434ft 98kts
07-Dec-18 10:33 33.831723 -116.511633 143 434ft 12kts
07-Dec-18 10:34 33.828628 -116.508775 142 434ft 15kts
07-Dec-18 10:35 33.825332 -116.507105 188 434ft 11kts

Navigation Log

Ident Type
Flight plan parsing failed, navigation log unavailable